Pioneer Town, Texas
Current Conditions -  °F | °C
As of 7:50 AM on Monday 20 Oct 2014 (Local Time) from KHYI Reporting Station
Haze Haze  
Wind Chill: 61°   Ceiling: Unl
Heat Index: 61°   Visibility: 4mi
Dew Point: 55°   Wind: 6mph
Humidity: 82%   Direction: 360°N
Pressure: 30.06"   Gusts: NA
Location:  30.0586°N, 98.15°W
Report Text: KHYI 201250Z 36005KT 4SM BR CLR 16/13 A3006
Loading
Personal Weather Stations






























Interactive Weather Map
Tropical Storm Tracking
New forecast layout! Learn more

10-Day Weather Forecast

Advertisements
Track Severe Weather on mobile